createdAt,value
2022-10-17T00:00:39.858Z,14.55
2022-10-17T00:03:06.639Z,12.65
2022-10-17T00:05:33.516Z,14.77
2022-10-17T00:07:59.964Z,13.98
2022-10-17T00:10:26.333Z,15.07
2022-10-17T00:12:52.730Z,16.48
2022-10-17T00:15:20.499Z,14.65
2022-10-17T00:17:46.922Z,15.10
2022-10-17T00:20:13.680Z,14.80
2022-10-17T00:22:40.135Z,16.58
2022-10-17T00:25:06.722Z,14.73
2022-10-17T00:27:39.970Z,14.55
2022-10-17T00:30:08.311Z,14.40
2022-10-17T00:32:34.713Z,14.77
2022-10-17T00:35:01.103Z,12.20
2022-10-17T00:37:27.705Z,12.27
2022-10-17T00:39:54.421Z,12.43
2022-10-17T00:42:20.818Z,15.57
2022-10-17T00:44:47.509Z,15.48
2022-10-17T00:47:17.299Z,15.00
2022-10-17T00:49:43.758Z,15.25
2022-10-17T00:52:13.817Z,18.05
2022-10-17T00:54:45.405Z,18.48
2022-10-17T00:57:12.284Z,17.83
2022-10-17T00:59:40.180Z,17.90
2022-10-17T01:02:09.843Z,18.25
2022-10-17T01:04:41.340Z,20.05
2022-10-17T01:07:08.351Z,25.83
2022-10-17T01:09:35.604Z,23.90
2022-10-17T01:12:16.547Z,27.70
2022-10-17T01:15:13.908Z,31.25
2022-10-17T01:18:13.535Z,29.13
2022-10-17T01:20:58.873Z,28.17
2022-10-17T01:23:53.006Z,31.27
2022-10-17T01:26:28.163Z,28.83
2022-10-17T01:29:21.886Z,27.83
2022-10-17T01:32:02.037Z,25.95
2022-10-17T01:34:33.287Z,20.15
2022-10-17T01:37:04.139Z,13.33
2022-10-17T01:39:45.318Z,13.02
2022-10-17T01:42:35.380Z,11.25
2022-10-17T01:45:21.518Z,10.50
2022-10-17T01:47:50.824Z,12.38
2022-10-17T01:50:21.365Z,18.83
2022-10-17T01:52:58.039Z,22.55
2022-10-17T01:55:33.428Z,23.83
2022-10-17T01:58:05.785Z,25.20
2022-10-17T02:00:32.497Z,31.75
2022-10-17T02:03:00.684Z,25.98
2022-10-17T02:05:31.612Z,26.05
2022-10-17T02:07:58.000Z,24.20
2022-10-17T02:10:33.401Z,27.73
2022-10-17T02:13:10.943Z,29.65
2022-10-17T02:16:02.073Z,25.15
2022-10-17T02:18:28.354Z,27.45
2022-10-17T02:21:05.642Z,26.75
2022-10-17T02:23:47.480Z,23.52
2022-10-17T02:26:41.432Z,22.83
2022-10-17T02:29:13.053Z,21.08
2022-10-17T02:31:48.273Z,20.65
2022-10-17T02:34:18.686Z,19.48
2022-10-17T02:36:52.182Z,17.98
2022-10-17T02:39:20.684Z,16.65
2022-10-17T02:41:48.314Z,18.20
2022-10-17T02:44:15.225Z,16.85
2022-10-17T02:46:42.936Z,14.05
2022-10-17T02:49:17.539Z,11.70
2022-10-17T02:52:05.616Z,12.43
2022-10-17T02:54:37.923Z,12.07
2022-10-17T02:57:11.888Z,11.13
2022-10-17T02:59:38.605Z,11.73
2022-10-17T03:02:06.129Z,11.40
2022-10-17T03:04:33.071Z,11.70
2022-10-17T03:06:59.469Z,11.57
2022-10-17T03:09:25.833Z,11.13
2022-10-17T03:11:52.268Z,11.02
2022-10-17T03:14:18.649Z,10.27
2022-10-17T03:16:45.013Z,9.27
2022-10-17T03:19:11.446Z,10.18
2022-10-17T03:21:38.165Z,9.43
2022-10-17T03:24:04.982Z,9.35
2022-10-17T03:26:31.414Z,10.10
2022-10-17T03:28:57.850Z,8.65
2022-10-17T03:31:24.259Z,8.77
2022-10-17T03:33:50.682Z,8.32
2022-10-17T03:36:19.036Z,10.48
2022-10-17T03:38:46.216Z,10.80
2022-10-17T03:41:12.650Z,10.20
2022-10-17T03:43:42.120Z,9.35
2022-10-17T03:46:08.597Z,9.30
2022-10-17T03:48:35.105Z,8.98
2022-10-17T03:51:03.658Z,8.82
2022-10-17T03:53:30.223Z,9.77
2022-10-17T03:55:57.152Z,10.23
2022-10-17T03:58:23.565Z,9.68
2022-10-17T04:00:49.935Z,9.82
2022-10-17T04:03:17.404Z,9.20
2022-10-17T04:05:43.912Z,9.15
2022-10-17T04:08:10.290Z,9.10
2022-10-17T04:10:36.667Z,8.95
2022-10-17T04:13:03.208Z,8.57
2022-10-17T04:15:29.599Z,9.05
2022-10-17T04:17:56.074Z,9.10
2022-10-17T04:20:22.549Z,9.32
2022-10-17T04:22:48.908Z,9.05
2022-10-17T04:25:15.343Z,8.38
2022-10-17T04:27:41.793Z,9.60
2022-10-17T04:30:08.399Z,9.10
2022-10-17T04:32:38.832Z,8.80
2022-10-17T04:35:05.703Z,9.15
2022-10-17T04:37:32.118Z,8.88
2022-10-17T04:39:58.472Z,8.30
2022-10-17T04:42:24.886Z,9.98
2022-10-17T04:44:51.255Z,9.75
2022-10-17T04:47:17.610Z,9.98
2022-10-17T04:49:44.038Z,11.30
2022-10-17T04:52:10.457Z,11.48
2022-10-17T04:54:36.815Z,13.68
2022-10-17T04:57:03.191Z,12.20
2022-10-17T04:59:29.815Z,11.02
2022-10-17T05:01:56.165Z,12.25
2022-10-17T05:04:24.770Z,13.20
2022-10-17T05:06:51.403Z,13.52
2022-10-17T05:09:17.860Z,12.57
2022-10-17T05:11:44.284Z,11.18
2022-10-17T05:14:10.720Z,10.93
2022-10-17T05:16:37.157Z,10.80
2022-10-17T05:19:03.581Z,13.98
2022-10-17T05:21:30.542Z,11.70
2022-10-17T05:23:57.293Z,11.45
2022-10-17T05:26:24.458Z,12.60
2022-10-17T05:28:52.465Z,10.15
2022-10-17T05:31:18.978Z,10.85
2022-10-17T05:33:45.377Z,10.25
2022-10-17T05:36:11.844Z,10.60
2022-10-17T05:38:38.247Z,10.02
2022-10-17T05:41:05.789Z,10.20
2022-10-17T05:43:33.192Z,10.38
2022-10-17T05:46:03.305Z,10.18
2022-10-17T05:48:29.644Z,10.48
2022-10-17T05:51:00.490Z,9.90
2022-10-17T05:53:30.579Z,10.50
2022-10-17T05:56:01.602Z,9.70
2022-10-17T06:01:14.832Z,8.98
2022-10-17T06:03:41.219Z,8.65
2022-10-17T06:06:10.079Z,8.63
2022-10-17T06:08:36.626Z,9.20
2022-10-17T06:11:06.126Z,9.10
2022-10-17T06:13:35.617Z,8.43
2022-10-17T06:16:01.999Z,6.93
2022-10-17T06:18:29.081Z,6.97
2022-10-17T06:21:02.472Z,7.95
2022-10-17T06:23:28.861Z,7.80
2022-10-17T06:25:58.873Z,7.78
2022-10-17T06:28:25.293Z,8.18
2022-10-17T06:30:51.669Z,7.95
2022-10-17T06:33:18.182Z,7.38
2022-10-17T06:35:44.540Z,7.13
2022-10-17T06:38:10.929Z,7.35
2022-10-17T06:40:37.308Z,6.72
2022-10-17T06:43:03.663Z,7.25
2022-10-17T06:45:30.024Z,7.65
2022-10-17T06:47:56.368Z,7.50
2022-10-17T06:50:22.725Z,7.30
2022-10-17T06:52:51.633Z,7.00
2022-10-17T06:55:21.432Z,6.60
2022-10-17T06:57:49.640Z,6.30
2022-10-17T07:00:16.172Z,6.55
2022-10-17T07:02:43.744Z,6.47
2022-10-17T07:05:10.377Z,6.50
2022-10-17T07:07:40.048Z,6.70
2022-10-17T07:10:09.634Z,7.18
2022-10-17T07:12:36.261Z,8.73
2022-10-17T07:15:04.305Z,7.05
2022-10-17T07:17:31.723Z,7.68
2022-10-17T07:19:58.333Z,7.63
2022-10-17T07:22:24.750Z,9.00
2022-10-17T07:24:51.101Z,8.15
2022-10-17T07:27:17.479Z,7.75
2022-10-17T07:29:43.838Z,7.75
2022-10-17T07:32:10.269Z,8.02
2022-10-17T07:34:36.671Z,10.00
2022-10-17T07:37:03.889Z,8.38
2022-10-17T07:39:30.276Z,7.70
2022-10-17T07:41:56.688Z,7.53
2022-10-17T07:44:23.045Z,7.40
2022-10-17T07:46:49.409Z,6.95
2022-10-17T07:49:15.770Z,7.95
2022-10-17T07:51:42.279Z,7.72
2022-10-17T07:54:08.797Z,7.45
2022-10-17T07:56:35.259Z,7.05
2022-10-17T07:59:03.950Z,7.20
2022-10-17T08:01:33.198Z,7.00
2022-10-17T08:03:59.537Z,6.05
2022-10-17T08:06:25.926Z,5.57
2022-10-17T08:08:52.395Z,5.88
2022-10-17T08:11:19.177Z,5.45
2022-10-17T08:13:45.583Z,5.20
2022-10-17T08:16:12.823Z,5.28
2022-10-17T08:18:40.367Z,5.30
2022-10-17T08:21:08.233Z,5.40
2022-10-17T08:23:35.782Z,5.03
2022-10-17T08:26:04.109Z,5.80
2022-10-17T08:28:30.555Z,4.13
2022-10-17T08:31:08.843Z,4.82
2022-10-17T08:33:35.287Z,4.85
2022-10-17T08:36:02.441Z,4.85
2022-10-17T08:38:33.252Z,4.40
2022-10-17T08:41:03.903Z,4.47
2022-10-17T08:43:48.566Z,4.60
2022-10-17T08:48:48.031Z,4.63
2022-10-17T08:51:21.279Z,4.88
2022-10-17T08:53:49.376Z,4.07
2022-10-17T08:59:17.094Z,4.03
2022-10-17T09:02:01.797Z,4.50
2022-10-17T09:04:35.052Z,4.60
2022-10-17T09:07:20.089Z,4.00
2022-10-17T09:10:10.441Z,4.15
2022-10-17T09:12:52.003Z,4.25
2022-10-17T09:15:33.516Z,4.13
2022-10-17T09:18:07.672Z,4.20
2022-10-17T09:20:38.925Z,4.45
2022-10-17T09:23:12.502Z,3.50
2022-10-17T09:25:44.888Z,4.13
2022-10-17T09:28:18.632Z,4.13
2022-10-17T09:30:48.008Z,3.85
2022-10-17T09:33:35.137Z,3.92
2022-10-17T09:36:18.198Z,3.80
2022-10-17T09:38:49.970Z,4.75
2022-10-17T09:41:44.433Z,3.63
2022-10-17T09:44:18.869Z,4.22
2022-10-17T09:47:23.399Z,4.18
2022-10-17T09:49:50.320Z,3.60
2022-10-17T09:52:33.469Z,2.97
2022-10-17T09:55:45.738Z,3.30
2022-10-17T09:58:12.256Z,4.18
2022-10-17T10:00:47.464Z,3.30
2022-10-17T10:03:16.801Z,3.75
2022-10-17T10:05:59.255Z,3.70
2022-10-17T10:08:34.665Z,3.90
2022-10-17T10:11:04.486Z,3.42
2022-10-17T10:13:32.533Z,3.08
2022-10-17T10:16:13.819Z,3.90
2022-10-17T10:18:40.207Z,3.30
2022-10-17T10:21:14.105Z,3.70
2022-10-17T10:23:43.032Z,3.60
2022-10-17T10:26:22.724Z,3.08
2022-10-17T10:28:58.517Z,3.75
2022-10-17T10:31:30.979Z,3.92
2022-10-17T10:33:59.623Z,3.63
2022-10-17T10:36:26.257Z,3.95
2022-10-17T10:38:55.423Z,3.60
2022-10-17T10:41:21.803Z,4.68
2022-10-17T10:43:50.105Z,3.17
2022-10-17T10:46:20.553Z,3.58
2022-10-17T10:49:01.064Z,4.20
2022-10-17T10:51:32.616Z,3.58
2022-10-17T10:54:20.367Z,3.92
2022-10-17T10:56:52.656Z,4.07
2022-10-17T10:59:30.537Z,3.97
2022-10-17T11:02:03.504Z,3.47
2022-10-17T11:04:47.454Z,3.63
2022-10-17T11:07:24.636Z,4.32
2022-10-17T11:09:56.340Z,3.92
2022-10-17T11:12:27.578Z,3.88
2022-10-17T11:15:08.210Z,4.00
2022-10-17T11:17:38.538Z,4.07
2022-10-17T11:20:18.190Z,3.90
2022-10-17T11:22:47.720Z,4.00
2022-10-17T11:25:22.401Z,4.10
2022-10-17T11:27:48.755Z,3.67
2022-10-17T11:30:16.340Z,4.55
2022-10-17T11:33:01.117Z,3.75
2022-10-17T11:35:34.374Z,3.53
2022-10-17T11:38:15.989Z,3.50
2022-10-17T11:40:45.876Z,4.22
2022-10-17T11:43:30.506Z,3.90
2022-10-17T11:46:02.205Z,3.42
2022-10-17T11:48:44.296Z,4.22
2022-10-17T11:54:31.375Z,3.10
2022-10-17T11:57:18.527Z,3.28
2022-10-17T12:00:07.839Z,3.35
2022-10-17T12:02:51.670Z,3.38
2022-10-17T12:05:36.248Z,3.60
2022-10-17T12:08:15.935Z,3.78
2022-10-17T12:11:04.048Z,4.05
2022-10-17T12:13:33.322Z,3.85
2022-10-17T12:16:18.484Z,4.00
2022-10-17T12:18:50.911Z,4.82
2022-10-17T12:21:17.378Z,3.40
2022-10-17T12:23:52.440Z,3.63
2022-10-17T12:26:26.958Z,3.47
2022-10-17T12:28:53.499Z,3.90
2022-10-17T12:31:21.638Z,3.75
2022-10-17T12:33:52.816Z,3.35
2022-10-17T12:36:21.044Z,3.77
2022-10-17T12:38:50.371Z,3.38
2022-10-17T12:41:17.692Z,4.30
2022-10-17T12:46:52.110Z,4.43
2022-10-17T12:49:38.350Z,3.80
2022-10-17T12:52:16.927Z,3.50
2022-10-17T12:55:00.155Z,3.97
2022-10-17T12:57:37.692Z,3.72
2022-10-17T13:00:21.056Z,3.70
2022-10-17T13:02:49.009Z,3.78
2022-10-17T13:05:33.689Z,4.47
2022-10-17T13:08:03.029Z,4.38
2022-10-17T13:10:33.117Z,3.97
2022-10-17T13:13:34.082Z,3.58
2022-10-17T13:16:00.878Z,3.90
2022-10-17T13:18:28.999Z,4.50
2022-10-17T13:21:26.056Z,4.03
2022-10-17T13:23:54.217Z,3.92
2022-10-17T13:26:26.908Z,4.03
2022-10-17T13:29:12.771Z,4.50
2022-10-17T13:31:41.191Z,5.28
2022-10-17T13:34:18.212Z,4.10
2022-10-17T13:36:48.800Z,4.15
2022-10-17T13:39:23.209Z,4.10
2022-10-17T13:41:58.900Z,4.10
2022-10-17T13:44:28.751Z,4.20
2022-10-17T13:46:55.161Z,3.70
2022-10-17T13:49:41.556Z,4.13
2022-10-17T13:52:18.284Z,4.47
2022-10-17T13:54:47.717Z,4.25
2022-10-17T13:57:25.937Z,4.28
2022-10-17T13:59:55.639Z,4.68
2022-10-17T14:02:26.220Z,5.10
2022-10-17T14:05:23.614Z,4.72
2022-10-17T14:10:40.579Z,5.45
2022-10-17T14:13:10.806Z,4.47
2022-10-17T14:15:37.378Z,4.88
2022-10-17T14:18:08.428Z,4.00
2022-10-17T14:23:39.282Z,4.00
2022-10-17T14:26:15.403Z,4.18
2022-10-17T14:28:44.846Z,4.43
2022-10-17T14:31:30.298Z,5.32
2022-10-17T14:33:56.985Z,4.53
2022-10-17T14:36:41.739Z,4.38
2022-10-17T14:39:19.039Z,5.03
2022-10-17T14:41:46.004Z,4.63
2022-10-17T14:44:20.469Z,4.18
2022-10-17T14:46:50.911Z,3.72
2022-10-17T14:49:28.300Z,4.57
2022-10-17T14:52:18.270Z,5.00
2022-10-17T14:54:47.163Z,4.38
2022-10-17T14:57:21.908Z,4.32
2022-10-17T14:59:55.839Z,5.10
2022-10-17T15:02:27.577Z,5.40
2022-10-17T15:04:54.517Z,4.53
2022-10-17T15:07:21.619Z,4.70
2022-10-17T15:09:49.586Z,4.82
2022-10-17T15:12:18.861Z,5.00
2022-10-17T15:14:47.752Z,5.75
2022-10-17T15:17:18.352Z,5.05
2022-10-17T15:19:44.953Z,4.82
2022-10-17T15:22:11.432Z,5.07
2022-10-17T15:24:37.990Z,4.40
2022-10-17T15:27:09.565Z,4.32
2022-10-17T15:29:35.929Z,4.88
2022-10-17T15:32:02.311Z,4.65
2022-10-17T15:34:28.661Z,4.68
2022-10-17T15:36:55.024Z,5.40
2022-10-17T15:39:21.360Z,5.47
2022-10-17T15:41:48.605Z,9.13
2022-10-17T15:44:15.089Z,5.40
2022-10-17T15:46:42.174Z,5.97
2022-10-17T15:49:14.180Z,5.63
2022-10-17T15:51:41.856Z,6.35
2022-10-17T15:54:08.470Z,5.43
2022-10-17T15:56:37.804Z,6.90
2022-10-17T15:59:10.145Z,6.95
2022-10-17T16:01:36.639Z,7.63
2022-10-17T16:04:03.069Z,14.10
2022-10-17T16:06:29.604Z,8.02
2022-10-17T16:08:56.095Z,12.60
2022-10-17T16:11:51.595Z,35.53
2022-10-17T16:14:18.263Z,23.77
2022-10-17T16:16:44.702Z,22.45
2022-10-17T16:19:11.750Z,38.13
2022-10-17T16:21:40.243Z,45.40
2022-10-17T16:24:07.097Z,48.03
2022-10-17T16:26:33.586Z,16.75
2022-10-17T16:29:02.871Z,15.73
2022-10-17T16:31:34.650Z,20.65
2022-10-17T16:34:03.003Z,24.85
2022-10-17T16:36:29.420Z,35.33
2022-10-17T16:38:55.910Z,33.55
2022-10-17T16:41:28.254Z,43.22
2022-10-17T16:43:56.987Z,18.45
2022-10-17T16:46:24.572Z,11.23
2022-10-17T16:48:51.031Z,11.88
2022-10-17T16:51:18.732Z,8.85
2022-10-17T16:53:46.403Z,16.95
2022-10-17T16:56:15.378Z,15.65
2022-10-17T16:58:42.532Z,17.17
2022-10-17T17:01:12.848Z,10.40
2022-10-17T17:03:41.501Z,21.50
2022-10-17T17:06:09.294Z,19.73
2022-10-17T17:08:38.637Z,14.80
2022-10-17T17:11:12.394Z,19.67
2022-10-17T17:13:38.838Z,16.45
2022-10-17T17:16:08.255Z,18.58
2022-10-17T17:18:35.068Z,37.80
2022-10-17T17:21:02.979Z,21.58
2022-10-17T17:23:29.932Z,15.65
2022-10-17T17:25:58.742Z,21.70
2022-10-17T17:28:26.101Z,98.85
2022-10-17T17:30:52.692Z,179.05
2022-10-17T17:33:19.081Z,153.50
2022-10-17T17:35:45.441Z,60.13
2022-10-17T17:38:11.810Z,19.35
2022-10-17T17:40:49.606Z,11.65
2022-10-17T17:43:18.245Z,10.02
2022-10-17T17:45:44.661Z,11.70
2022-10-17T17:48:12.141Z,11.60
2022-10-17T17:50:39.369Z,16.20
2022-10-17T17:53:06.586Z,18.35
2022-10-17T17:55:33.569Z,16.95
2022-10-17T17:58:00.052Z,16.17
2022-10-17T18:00:26.742Z,13.25
2022-10-17T18:02:53.157Z,12.65
2022-10-17T18:05:19.559Z,13.98
2022-10-17T18:07:45.945Z,15.10
2022-10-17T18:12:42.011Z,11.90
2022-10-17T18:15:08.787Z,10.85
2022-10-17T18:17:35.500Z,9.95
2022-10-17T18:20:02.725Z,9.45
2022-10-17T18:22:29.601Z,15.75
2022-10-17T18:24:56.148Z,12.00
2022-10-17T18:27:22.582Z,13.07
2022-10-17T18:29:50.323Z,10.88
2022-10-17T18:32:17.099Z,12.88
2022-10-17T18:34:43.475Z,14.23
2022-10-17T18:37:09.868Z,12.38
2022-10-17T18:39:36.269Z,10.50
2022-10-17T18:42:02.679Z,9.15
2022-10-17T18:44:29.132Z,8.70
2022-10-17T18:46:58.541Z,8.77
2022-10-17T18:49:27.851Z,8.70
2022-10-17T18:51:54.350Z,7.57
2022-10-17T18:54:21.988Z,9.02
2022-10-17T18:56:53.798Z,8.85
2022-10-17T18:59:20.459Z,8.80
2022-10-17T19:01:47.443Z,9.52
2022-10-17T19:04:14.418Z,8.95
2022-10-17T19:06:41.086Z,8.95
2022-10-17T19:09:08.990Z,10.15
2022-10-17T19:11:36.497Z,11.68
2022-10-17T19:14:08.069Z,11.05
2022-10-17T19:16:36.805Z,13.82
2022-10-17T19:19:16.277Z,9.80
2022-10-17T19:21:43.450Z,9.48
2022-10-17T19:24:18.953Z,9.65
2022-10-17T19:26:46.689Z,10.50
2022-10-17T19:29:14.120Z,10.40
2022-10-17T19:31:40.652Z,10.43
2022-10-17T19:34:07.100Z,10.98
2022-10-17T19:36:34.467Z,11.70
2022-10-17T19:39:03.452Z,11.05
2022-10-17T19:41:30.184Z,10.90
2022-10-17T19:43:56.545Z,12.27
2022-10-17T19:46:26.292Z,12.55
2022-10-17T19:48:53.245Z,11.40
2022-10-17T19:51:21.550Z,12.32
2022-10-17T19:53:48.058Z,11.80
2022-10-17T19:56:18.372Z,12.27
2022-10-17T19:58:46.463Z,12.48
2022-10-17T20:01:15.880Z,11.82
2022-10-17T20:03:42.437Z,10.95
2022-10-17T20:06:09.447Z,11.23
2022-10-17T20:08:37.408Z,11.00
2022-10-17T20:11:09.230Z,11.00
2022-10-17T20:13:36.454Z,10.38
2022-10-17T20:16:03.471Z,10.85
2022-10-17T20:18:30.104Z,11.10
2022-10-17T20:20:56.472Z,11.60
2022-10-17T20:23:23.080Z,11.25
2022-10-17T20:26:08.033Z,10.70
2022-10-17T20:28:40.290Z,12.05
2022-10-17T20:31:08.071Z,11.48
2022-10-17T20:33:34.425Z,10.85
2022-10-17T20:36:04.875Z,10.52
2022-10-17T20:38:31.260Z,10.05
2022-10-17T20:41:02.411Z,10.35
2022-10-17T20:43:29.097Z,10.07
2022-10-17T20:46:04.580Z,9.20
2022-10-17T20:48:37.335Z,10.07
2022-10-17T20:51:10.498Z,8.98
2022-10-17T20:53:37.824Z,8.55
2022-10-17T20:56:07.153Z,8.43
2022-10-17T20:58:34.066Z,8.15
2022-10-17T21:01:10.538Z,6.90
2022-10-17T21:03:40.970Z,7.75
2022-10-17T21:06:10.506Z,7.63
2022-10-17T21:08:36.968Z,6.90
2022-10-17T21:11:26.373Z,6.05
2022-10-17T21:13:58.371Z,6.32
2022-10-17T21:16:25.063Z,6.20
2022-10-17T21:18:51.551Z,6.57
2022-10-17T21:21:29.508Z,6.30
2022-10-17T21:23:58.155Z,6.45
2022-10-17T21:26:24.838Z,6.63
2022-10-17T21:28:51.207Z,6.03
2022-10-17T21:31:18.894Z,6.13
2022-10-17T21:33:53.073Z,5.45
2022-10-17T21:36:20.287Z,6.22
2022-10-17T21:38:47.696Z,6.70
2022-10-17T21:41:15.736Z,6.60
2022-10-17T21:43:42.714Z,6.55
2022-10-17T21:46:11.676Z,6.10
2022-10-17T21:48:38.548Z,6.68
2022-10-17T21:51:07.496Z,7.07
2022-10-17T21:53:34.553Z,6.78
2022-10-17T21:56:02.147Z,6.93
2022-10-17T21:58:28.803Z,7.13
2022-10-17T22:01:10.436Z,7.88
2022-10-17T22:03:42.721Z,7.43
2022-10-17T22:09:00.450Z,8.20
2022-10-17T22:11:29.386Z,8.38
2022-10-17T22:14:06.532Z,8.20
2022-10-17T22:16:33.664Z,8.88
2022-10-17T22:19:04.927Z,8.07
2022-10-17T22:21:32.838Z,8.70
2022-10-17T22:24:01.000Z,7.88
2022-10-17T22:26:28.832Z,7.63
2022-10-17T22:28:55.363Z,8.18
2022-10-17T22:31:22.042Z,8.02
2022-10-17T22:33:48.741Z,8.05
2022-10-17T22:36:15.170Z,8.52
2022-10-17T22:38:41.550Z,7.93
2022-10-17T22:41:07.944Z,9.15
2022-10-17T22:43:34.317Z,7.90
2022-10-17T22:46:03.477Z,8.13
2022-10-17T22:48:30.448Z,8.70
2022-10-17T22:50:58.124Z,8.02
2022-10-17T22:53:26.515Z,7.90
2022-10-17T22:55:59.865Z,7.95
2022-10-17T22:58:28.075Z,7.75
2022-10-17T23:00:55.044Z,8.40
2022-10-17T23:03:22.622Z,8.75
2022-10-17T23:05:49.562Z,8.52
2022-10-17T23:08:17.851Z,8.73
2022-10-17T23:10:45.225Z,8.35
2022-10-17T23:13:11.682Z,8.48
2022-10-17T23:15:38.050Z,9.93
2022-10-17T23:18:04.661Z,8.73
2022-10-17T23:20:31.552Z,8.60
2022-10-17T23:22:58.597Z,9.95
2022-10-17T23:25:25.504Z,8.30
2022-10-17T23:27:51.942Z,9.52
2022-10-17T23:30:18.424Z,9.75
2022-10-17T23:32:44.788Z,11.80
2022-10-17T23:35:11.171Z,12.52
2022-10-17T23:37:37.551Z,13.10
2022-10-17T23:40:05.139Z,15.32
2022-10-17T23:42:31.918Z,14.05
2022-10-17T23:44:58.285Z,13.07
2022-10-17T23:47:24.672Z,11.45
2022-10-17T23:49:51.065Z,11.07
2022-10-17T23:52:17.435Z,9.13
2022-10-17T23:54:43.942Z,9.98
2022-10-17T23:57:10.307Z,8.88
2022-10-17T23:59:36.676Z,9.07
